Time;durP1;ratioP1;P1;durP2;ratioP2;P2;SDS_P1;SDS_P2;PMS_P1;PMS_P2;Temp;Humidity;BMP_temperature;BMP_pressure;BME280_temperature;BME280_humidity;BME280_pressure;Samples;Min_cycle;Max_cycle;Signal;HPM_P1;HPM_P2
2022/04/26 03:39:35;;;;;;;;;;;;;;;21.15;36.45;95151.78;10380632;28;2026;-44
2022/04/26 03:44:36;;;;;;;;;;;;;;;21.14;36.43;95153.66;10380273;28;1891;-44
2022/04/26 03:49:37;;;;;;;;;;;;;;;21.15;36.22;95149.16;10393431;28;1902;-42
2022/04/26 03:54:37;;;;;;;;;;;;;;;21.16;36.27;95150.72;10411948;28;1971;-45
2022/04/26 03:59:38;;;;;;;;;;;;;;;21.17;36.19;95158.34;10387972;28;1998;-43
2022/04/26 04:04:39;;;;;;;;;;;;;;;21.20;36.38;95156.97;10391429;28;2056;-44
2022/04/26 04:09:39;;;;;;;;;;;;;;;21.21;36.02;95158.53;10389743;28;1955;-44
2022/04/26 04:14:40;;;;;;;;;;;;;;;21.25;35.88;95167.41;10412753;28;2059;-42
2022/04/26 04:19:40;;;;;;;;;;;;;;;21.22;36.07;95165.38;10390869;28;1910;-44
2022/04/26 04:24:41;;;;;;;;;;;;;;;21.21;36.33;95169.84;10397396;28;1969;-43
2022/04/26 04:29:41;;;;;;;;;;;;;;;21.20;36.36;95167.53;10402347;28;1978;-43
2022/04/26 04:34:41;;;;;;;;;;;;;;;21.22;35.91;95171.44;10399935;28;1924;-45
2022/04/26 04:39:42;;;;;;;;;;;;;;;21.19;36.19;95179.13;10397226;28;1930;-43
2022/04/26 04:44:42;;;;;;;;;;;;;;;21.18;36.27;95201.28;10413070;28;1907;-44
2022/04/26 04:49:43;;;;;;;;;;;;;;;21.20;36.33;95193.88;10412471;28;1914;-47
2022/04/26 04:54:43;;;;;;;;;;;;;;;21.14;36.25;95195.03;10411210;28;1875;-43
2022/04/26 04:59:43;;;;;;;;;;;;;;;21.16;36.25;95198.16;10391262;28;1966;-45
2022/04/26 05:04:45;;;;;;;;;;;;;;;21.14;36.29;95202.94;10380084;28;1918;-44
2022/04/26 05:09:45;;;;;;;;;;;;;;;21.12;36.45;95202.47;10383735;28;2019;-44
2022/04/26 05:14:46;;;;;;;;;;;;;;;21.10;36.19;95202.75;10370890;28;1971;-44
2022/04/26 05:19:47;;;;;;;;;;;;;;;21.08;36.49;95197.75;10370661;28;2075;-46
2022/04/26 05:24:53;;;;;;;;;;;;;;;21.05;36.57;95202.81;10383229;28;1946;-43
2022/04/26 05:29:54;;;;;;;;;;;;;;;21.06;36.51;95199.13;10365443;28;1976;-50
2022/04/26 05:34:55;;;;;;;;;;;;;;;21.04;36.57;95202.03;10376184;28;1887;-44
2022/04/26 05:39:56;;;;;;;;;;;;;;;21.07;36.56;95203.31;10393511;28;2300;-43
2022/04/26 05:44:56;;;;;;;;;;;;;;;21.01;37.31;95210.50;10386038;28;1933;-45
2022/04/26 05:49:57;;;;;;;;;;;;;;;21.06;36.85;95212.31;10375745;28;2028;-44
2022/04/26 05:54:58;;;;;;;;;;;;;;;21.08;37.20;95210.94;10376203;28;1846;-42
2022/04/26 05:59:59;;;;;;;;;;;;;;;21.10;37.39;95220.41;10376770;28;2009;-43
2022/04/26 06:04:59;;;;;;;;;;;;;;;21.14;37.42;95216.13;10381294;28;1859;-42
2022/04/26 06:10:01;;;;;;;;;;;;;;;21.13;37.42;95223.25;10395488;28;2029;-42
2022/04/26 06:15:01;;;;;;;;;;;;;;;21.16;37.24;95220.03;10406627;28;2093;-45
2022/04/26 06:20:02;;;;;;;;;;;;;;;21.17;37.23;95218.16;10383474;28;1968;-42
2022/04/26 06:25:02;;;;;;;;;;;;;;;21.19;37.19;95219.44;10388923;28;1930;-47
2022/04/26 06:30:03;;;;;;;;;;;;;;;21.21;37.19;95221.78;10394769;28;2405;-45
2022/04/26 06:35:03;;;;;;;;;;;;;;;21.22;36.98;95215.47;10381913;28;1899;-44
2022/04/26 06:40:04;;;;;;;;;;;;;;;21.27;36.79;95226.69;10395895;28;1910;-45
2022/04/26 06:45:05;;;;;;;;;;;;;;;21.26;36.87;95224.34;10374153;28;1950;-43
2022/04/26 06:50:05;;;;;;;;;;;;;;;21.29;36.81;95229.06;10371850;28;2006;-47
2022/04/26 06:55:06;;;;;;;;;;;;;;;21.32;36.83;95223.19;10377343;28;2292;-44
2022/04/26 07:00:06;;;;;;;;;;;;;;;21.32;36.62;95231.09;10375491;28;1985;-43
2022/04/26 07:05:07;;;;;;;;;;;;;;;21.34;36.64;95221.03;10394621;28;2318;-48
2022/04/26 07:10:08;;;;;;;;;;;;;;;21.32;36.55;95220.56;10365361;28;1906;-45
2022/04/26 07:15:09;;;;;;;;;;;;;;;21.35;36.55;95218.09;10376591;28;1992;-44
2022/04/26 07:20:09;;;;;;;;;;;;;;;21.36;36.55;95218.91;10380258;28;2003;-45
2022/04/26 07:25:10;;;;;;;;;;;;;;;21.39;36.40;95226.25;10375314;28;1921;-44
2022/04/26 07:30:10;;;;;;;;;;;;;;;21.40;36.36;95218.03;10387026;28;1978;-47
2022/04/26 07:35:11;;;;;;;;;;;;;;;21.39;36.14;95224.34;10407607;28;1957;-45
2022/04/26 07:40:11;;;;;;;;;;;;;;;21.41;36.30;95216.94;10405889;28;1945;-43
2022/04/26 07:45:12;;;;;;;;;;;;;;;21.43;36.35;95230.63;10404411;28;1942;-44
2022/04/26 07:50:13;;;;;;;;;;;;;;;21.41;36.26;95237.28;10402498;28;1850;-45
2022/04/26 07:55:13;;;;;;;;;;;;;;;21.41;36.40;95234.63;10399116;28;2020;-46
2022/04/26 08:00:16;;;;;;;;;;;;;;;21.38;36.80;95240.47;10396189;28;1975;-48
2022/04/26 08:05:16;;;;;;;;;;;;;;;21.36;36.55;95240.00;10390306;28;1867;-44
2022/04/26 08:10:16;;;;;;;;;;;;;;;21.30;36.89;95241.94;10371706;28;1842;-44
2022/04/26 08:15:18;;;;;;;;;;;;;;;21.27;36.65;95242.50;10396306;28;2007;-50
2022/04/26 08:20:18;;;;;;;;;;;;;;;21.21;36.67;95242.88;10388664;28;1910;-45
2022/04/26 08:30:38;;;;;;;;;;;;;;;21.14;36.00;95247.75;10392598;28;1849;-48
2022/04/26 08:35:38;;;;;;;;;;;;;;;21.23;35.94;95246.00;10374060;28;1826;-43
2022/04/26 08:40:45;;;;;;;;;;;;;;;21.33;36.29;95251.13;10387309;28;1926;-50
2022/04/26 08:45:45;;;;;;;;;;;;;;;21.37;36.31;95257.38;10393930;28;1885;-46
2022/04/26 08:51:04;;;;;;;;;;;;;;;21.38;36.06;95261.56;10396862;28;1803;-45
2022/04/26 08:56:06;;;;;;;;;;;;;;;21.42;36.07;95271.25;10410759;28;1877;-46
2022/04/26 09:01:09;;;;;;;;;;;;;;;21.42;36.26;95267.84;10381517;28;1910;-45
2022/04/26 09:06:12;;;;;;;;;;;;;;;21.45;36.23;95264.63;10383992;28;1842;-47
2022/04/26 09:11:24;;;;;;;;;;;;;;;21.50;36.07;95269.78;10407658;28;1790;-48
2022/04/26 09:16:25;;;;;;;;;;;;;;;21.50;35.80;95264.53;10403086;28;1838;-47
2022/04/26 09:21:29;;;;;;;;;;;;;;;21.48;36.15;95269.31;10405540;28;1910;-48
2022/04/26 09:26:33;;;;;;;;;;;;;;;21.51;35.92;95274.81;10398529;28;1771;-48
2022/04/26 09:31:35;;;;;;;;;;;;;;;21.49;35.85;95270.88;10396908;28;1878;-45
2022/04/26 09:36:42;;;;;;;;;;;;;;;21.49;36.09;95273.53;10406264;28;1827;-50
2022/04/26 09:41:47;;;;;;;;;;;;;;;21.47;36.01;95273.03;10396358;28;1918;-45
2022/04/26 09:46:49;;;;;;;;;;;;;;;21.48;36.02;95282.50;10382654;28;1795;-44
2022/04/26 09:51:59;;;;;;;;;;;;;;;21.48;36.50;95285.13;10389705;28;1850;-43
2022/04/26 09:56:59;;;;;;;;;;;;;;;21.46;37.21;95288.06;10389657;28;1819;-46
2022/04/26 10:02:00;;;;;;;;;;;;;;;21.57;37.25;95288.66;10394738;28;1910;-43
2022/04/26 10:07:07;;;;;;;;;;;;;;;21.68;37.74;95287.41;10395641;28;1806;-43
2022/04/26 10:12:08;;;;;;;;;;;;;;;21.81;37.27;95291.91;10371292;28;1822;-43
2022/04/26 10:17:09;;;;;;;;;;;;;;;21.78;37.11;95284.59;10361967;28;1838;-44
2022/04/26 10:22:11;;;;;;;;;;;;;;;21.76;37.48;95284.13;10365112;28;1910;-45
2022/04/26 10:27:18;;;;;;;;;;;;;;;21.75;37.35;95285.19;10391812;28;1888;-49
2022/04/26 10:32:31;;;;;;;;;;;;;;;21.69;37.43;95289.78;10391909;28;1751;-43
2022/04/26 10:37:32;;;;;;;;;;;;;;;21.64;37.24;95294.34;10390579;28;1815;-46
2022/04/26 10:42:35;;;;;;;;;;;;;;;21.60;37.61;95290.72;10373897;28;1914;-42
2022/04/26 10:47:36;;;;;;;;;;;;;;;21.56;37.67;95293.16;10392243;28;1909;-44
2022/04/26 10:52:37;;;;;;;;;;;;;;;21.53;37.59;95303.50;10364368;28;1912;-47
2022/04/26 10:57:39;;;;;;;;;;;;;;;21.49;37.55;95302.53;10344011;28;1831;-44
2022/04/26 11:02:40;;;;;;;;;;;;;;;21.46;37.37;95308.38;10371816;28;1910;-45
2022/04/26 11:07:41;;;;;;;;;;;;;;;21.42;37.40;95323.19;10382707;28;1768;-42
2022/04/26 11:12:43;;;;;;;;;;;;;;;21.39;37.27;95331.72;10393317;28;1868;-46
2022/04/26 11:17:44;;;;;;;;;;;;;;;21.36;37.25;95345.44;10394176;28;1838;-45
2022/04/26 11:22:44;;;;;;;;;;;;;;;21.32;37.64;95363.69;10373928;28;1971;-44
2022/04/26 11:28:06;;;;;;;;;;;;;;;21.29;37.81;95379.31;10391851;28;1826;-44
2022/04/26 11:33:07;;;;;;;;;;;;;;;21.30;38.00;95394.06;10368183;28;1864;-44
2022/04/26 11:38:08;;;;;;;;;;;;;;;21.32;38.69;95395.34;10359130;28;1807;-48
2022/04/26 11:43:18;;;;;;;;;;;;;;;21.30;39.27;95415.13;10395642;28;1911;-46
2022/04/26 11:48:19;;;;;;;;;;;;;;;21.32;38.93;95424.34;10369138;28;1728;-43
2022/04/26 11:53:21;;;;;;;;;;;;;;;21.34;38.61;95434.59;10393093;28;1818;-43
2022/04/26 11:58:22;;;;;;;;;;;;;;;21.33;38.64;95452.25;10388658;28;1767;-47
2022/04/26 12:03:26;;;;;;;;;;;;;;;21.31;38.77;95458.91;10387121;28;1925;-48
2022/04/26 12:08:27;;;;;;;;;;;;;;;21.31;38.59;95470.22;10372710;28;1646;-49
2022/04/26 12:13:30;;;;;;;;;;;;;;;21.31;38.79;95472.09;10375258;28;1761;-47
2022/04/26 12:18:31;;;;;;;;;;;;;;;21.29;38.54;95471.59;10388420;28;1993;-43
2022/04/26 12:23:31;;;;;;;;;;;;;;;21.29;38.27;95476.88;10365968;28;1791;-42
2022/04/26 12:28:31;;;;;;;;;;;;;;;21.27;38.28;95476.38;10393139;28;1834;-44
2022/04/26 12:33:34;;;;;;;;;;;;;;;21.27;38.14;95479.00;10400348;28;1823;-45
2022/04/26 12:38:47;;;;;;;;;;;;;;;21.26;38.18;95486.13;10371774;28;1910;-45
2022/04/26 12:43:59;;;;;;;;;;;;;;;21.26;37.89;95485.31;10370262;28;1893;-45
2022/04/26 12:54:21;;;;;;;;;;;;;;;21.29;37.87;95500.59;10387980;28;1811;-43
2022/04/26 12:59:22;;;;;;;;;;;;;;;21.31;37.79;95501.09;10366369;28;1983;-48
2022/04/26 13:04:22;;;;;;;;;;;;;;;21.30;37.70;95510.06;10397414;28;1822;-46
2022/04/26 13:09:23;;;;;;;;;;;;;;;21.31;37.50;95507.13;10393614;28;1763;-43
2022/04/26 13:14:23;;;;;;;;;;;;;;;21.32;37.59;95502.63;10404973;28;1858;-49
2022/04/26 13:19:24;;;;;;;;;;;;;;;21.33;37.37;95498.94;10392637;28;1965;-47
2022/04/26 13:24:28;;;;;;;;;;;;;;;21.34;37.37;95489.97;10394620;28;1836;-43
2022/04/26 13:29:28;;;;;;;;;;;;;;;21.34;37.20;95482.84;10373370;28;1825;-47
2022/04/26 13:34:29;;;;;;;;;;;;;;;21.37;37.18;95482.25;10395052;28;1935;-46
2022/04/26 13:39:29;;;;;;;;;;;;;;;21.39;36.90;95443.22;10380165;28;1910;-47
2022/04/26 13:44:29;;;;;;;;;;;;;;;21.37;37.02;95463.03;10388279;28;1911;-48
2022/04/26 13:49:31;;;;;;;;;;;;;;;21.41;36.95;95493.81;10369930;28;1853;-45
2022/04/26 13:54:32;;;;;;;;;;;;;;;21.43;37.02;95483.75;10406764;28;1830;-45
2022/04/26 13:59:34;;;;;;;;;;;;;;;21.43;37.02;95498.81;10409290;28;1902;-46
2022/04/26 14:04:34;;;;;;;;;;;;;;;21.44;36.70;95500.38;10394014;28;1844;-49
2022/04/26 14:09:35;;;;;;;;;;;;;;;21.48;36.66;95533.00;10395367;28;2795;-45
2022/04/26 14:25:13;;;;;;;;;;;;;;;21.54;36.55;95545.84;10387132;28;1857;-44
2022/04/26 14:30:15;;;;;;;;;;;;;;;21.56;36.44;95540.28;10397398;28;1877;-47
2022/04/26 14:35:15;;;;;;;;;;;;;;;21.59;36.16;95551.06;10413990;28;1862;-42
2022/04/26 14:40:16;;;;;;;;;;;;;;;21.57;36.40;95537.38;10409613;28;1981;-45
2022/04/26 14:45:17;;;;;;;;;;;;;;;21.59;36.06;95555.56;10373716;28;1778;-55
2022/04/26 14:50:18;;;;;;;;;;;;;;;21.63;36.14;95562.63;10384810;28;1855;-44
2022/04/26 14:55:18;;;;;;;;;;;;;;;21.66;36.45;95571.78;10381486;28;1903;-45
2022/04/26 15:00:18;;;;;;;;;;;;;;;21.64;36.32;95576.56;10387885;28;2342;-43
2022/04/26 15:05:20;;;;;;;;;;;;;;;21.64;36.07;95563.38;10385209;28;1879;-43
2022/04/26 15:10:20;;;;;;;;;;;;;;;21.65;36.26;95570.25;10403457;28;1834;-42
2022/04/26 15:20:45;;;;;;;;;;;;;;;21.63;36.23;95575.81;10374835;28;1942;-46
2022/04/26 15:25:50;;;;;;;;;;;;;;;21.62;36.58;95568.16;10380834;28;1773;-47
2022/04/26 15:30:51;;;;;;;;;;;;;;;21.61;36.48;95572.66;10394722;28;1810;-43
2022/04/26 15:35:51;;;;;;;;;;;;;;;21.61;36.24;95574.53;10395941;28;1861;-43
2022/04/26 15:40:52;;;;;;;;;;;;;;;21.59;36.50;95576.66;10396129;28;1979;-45
2022/04/26 15:45:52;;;;;;;;;;;;;;;21.57;36.42;95573.53;10399305;28;1822;-45
2022/04/26 15:50:52;;;;;;;;;;;;;;;21.55;36.27;95586.22;10399989;28;1852;-46
2022/04/26 15:55:53;;;;;;;;;;;;;;;21.52;36.49;95584.13;10401896;28;1802;-46
2022/04/26 16:00:55;;;;;;;;;;;;;;;21.50;36.55;95580.97;10395703;28;1983;-43
2022/04/26 16:05:56;;;;;;;;;;;;;;;21.49;36.53;95577.59;10388340;28;1918;-43
2022/04/26 16:21:34;;;;;;;;;;;;;;;21.48;36.55;95593.66;10393385;28;1984;-45
2022/04/26 16:26:36;;;;;;;;;;;;;;;21.49;36.56;95584.69;10390834;28;1744;-44
2022/04/26 16:31:38;;;;;;;;;;;;;;;21.49;36.77;95587.34;10377132;28;1913;-48
2022/04/26 16:36:39;;;;;;;;;;;;;;;21.49;36.39;95589.97;10400483;28;1942;-43
2022/04/26 16:41:40;;;;;;;;;;;;;;;21.50;36.33;95580.97;10366682;28;1918;-42
2022/04/26 16:46:40;;;;;;;;;;;;;;;21.48;36.41;95594.47;10390148;28;1847;-49
2022/04/26 16:51:41;;;;;;;;;;;;;;;21.48;36.68;95585.75;10365328;28;1728;-44
2022/04/26 16:56:41;;;;;;;;;;;;;;;21.46;36.56;95587.88;10409867;28;1902;-42
2022/04/26 17:01:41;;;;;;;;;;;;;;;21.47;36.77;95581.56;10405209;28;1918;-57
2022/04/26 17:06:42;;;;;;;;;;;;;;;21.46;36.73;95590.53;10406132;28;1827;-44
2022/04/26 17:11:43;;;;;;;;;;;;;;;21.44;36.81;95595.28;10405228;28;1834;-42
2022/04/26 17:16:46;;;;;;;;;;;;;;;21.47;36.72;95605.28;10402957;28;1842;-43
2022/04/26 17:21:48;;;;;;;;;;;;;;;21.46;36.33;95612.41;10374131;28;1957;-42
2022/04/26 17:26:48;;;;;;;;;;;;;;;21.45;36.51;95615.34;10386594;28;1821;-42
2022/04/26 17:31:52;;;;;;;;;;;;;;;21.44;36.45;95619.81;10378691;28;2138;-42
2022/04/26 17:36:53;;;;;;;;;;;;;;;21.45;36.36;95623.25;10394208;28;1912;-44
2022/04/26 17:41:56;;;;;;;;;;;;;;;21.45;36.35;95628.53;10418866;28;1914;-41
2022/04/26 17:46:56;;;;;;;;;;;;;;;21.47;36.43;95635.09;10408857;28;1901;-43
2022/04/26 17:51:57;;;;;;;;;;;;;;;21.48;36.27;95641.94;10398950;28;1878;-44
2022/04/26 17:56:57;;;;;;;;;;;;;;;21.15;35.04;95649.94;10386447;28;1848;-49
2022/04/26 18:01:57;;;;;;;;;;;;;;;20.16;34.96;95656.47;10389281;28;1973;-47
2022/04/26 18:06:58;;;;;;;;;;;;;;;19.84;35.87;95656.13;10406963;28;1530;-45
2022/04/26 18:11:58;;;;;;;;;;;;;;;19.36;35.91;95661.06;10381342;28;1467;-45
2022/04/26 18:16:59;;;;;;;;;;;;;;;18.92;36.26;95665.31;10384262;28;1591;-49
2022/04/26 18:21:59;;;;;;;;;;;;;;;18.78;36.78;95668.72;10404842;28;1981;-47
2022/04/26 18:26:59;;;;;;;;;;;;;;;18.49;37.04;95676.34;10392069;28;1880;-47
2022/04/26 18:32:00;;;;;;;;;;;;;;;18.26;37.31;95679.47;10402967;28;1877;-48
2022/04/26 18:37:00;;;;;;;;;;;;;;;18.18;37.62;95678.13;10408183;28;1811;-48
2022/04/26 18:42:01;;;;;;;;;;;;;;;17.92;37.99;95679.13;10419923;28;2013;-43
2022/04/26 18:47:01;;;;;;;;;;;;;;;17.92;38.20;95696.69;10403292;28;1857;-45
2022/04/26 18:52:02;;;;;;;;;;;;;;;18.11;38.64;95687.28;10397581;28;1823;-50
2022/04/26 18:57:03;;;;;;;;;;;;;;;18.16;38.75;95693.34;10385104;28;1843;-44
2022/04/26 19:02:05;;;;;;;;;;;;;;;18.52;38.94;95696.84;10392430;28;1918;-46
2022/04/26 19:07:05;;;;;;;;;;;;;;;19.12;38.88;95709.97;10385770;28;1850;-43
2022/04/26 19:12:18;;;;;;;;;;;;;;;19.54;38.73;95714.13;10384897;28;1802;-45
2022/04/26 19:17:20;;;;;;;;;;;;;;;19.83;38.42;95717.69;10380236;28;1787;-48
2022/04/26 19:22:21;;;;;;;;;;;;;;;20.03;37.95;95720.25;10400037;28;1964;-47
2022/04/26 19:27:21;;;;;;;;;;;;;;;20.19;37.24;95729.63;10398076;28;1795;-46
2022/04/26 19:32:22;;;;;;;;;;;;;;;20.33;37.32;95732.47;10395091;28;1807;-43
2022/04/26 19:37:23;;;;;;;;;;;;;;;20.43;36.84;95733.22;10381931;28;1799;-45
2022/04/26 19:42:23;;;;;;;;;;;;;;;20.53;36.43;95727.88;10390307;28;1977;-43
2022/04/26 19:47:24;;;;;;;;;;;;;;;20.61;36.09;95724.66;10397654;28;1815;-48
2022/04/26 19:52:25;;;;;;;;;;;;;;;20.69;35.92;95721.44;10376259;28;1709;-46
2022/04/26 19:57:26;;;;;;;;;;;;;;;20.82;36.21;95733.19;10378064;28;1854;-44
2022/04/26 20:02:26;;;;;;;;;;;;;;;20.86;36.19;95734.22;10357938;28;1993;-44
2022/04/26 20:07:28;;;;;;;;;;;;;;;20.89;35.96;95737.13;10403774;28;1862;-45
2022/04/26 20:12:29;;;;;;;;;;;;;;;20.92;35.86;95733.13;10390257;28;2077;-43
2022/04/26 20:17:29;;;;;;;;;;;;;;;20.97;36.09;95733.09;10397002;28;1851;-44
2022/04/26 20:22:30;;;;;;;;;;;;;;;20.99;35.72;95737.03;10390316;28;1914;-44
2022/04/26 20:32:50;;;;;;;;;;;;;;;21.03;35.25;95738.09;10404164;28;1790;-45
2022/04/26 20:37:50;;;;;;;;;;;;;;;21.04;35.64;95733.59;10410868;28;1853;-43
2022/04/26 20:42:55;;;;;;;;;;;;;;;21.05;35.34;95733.31;10406221;28;1928;-46
2022/04/26 20:47:56;;;;;;;;;;;;;;;21.06;35.47;95734.88;10408675;28;1763;-46
2022/04/26 20:52:56;;;;;;;;;;;;;;;21.08;35.12;95741.75;10409000;28;1854;-44
2022/04/26 20:57:57;;;;;;;;;;;;;;;21.08;35.09;95744.38;10394286;28;1904;-44
2022/04/26 21:02:58;;;;;;;;;;;;;;;21.09;35.28;95741.44;10396393;28;1909;-43
2022/04/26 21:07:58;;;;;;;;;;;;;;;21.08;35.31;95743.28;10397625;28;1840;-44
2022/04/26 21:18:19;;;;;;;;;;;;;;;21.08;35.77;95745.94;10404018;28;1781;-45
2022/04/26 21:23:19;;;;;;;;;;;;;;;21.15;35.69;95750.09;10383416;28;1977;-44
2022/04/26 21:28:19;;;;;;;;;;;;;;;21.19;35.45;95745.84;10395011;28;1800;-44
2022/04/26 21:33:20;;;;;;;;;;;;;;;21.15;35.39;95742.19;10409046;28;1847;-45
2022/04/26 21:38:20;;;;;;;;;;;;;;;21.13;35.90;95752.22;10414767;28;2250;-46
2022/04/26 21:43:20;;;;;;;;;;;;;;;21.12;36.41;95750.66;10412814;28;2135;-44
2022/04/26 21:48:21;;;;;;;;;;;;;;;21.12;36.47;95748.81;10415907;28;1994;-44
2022/04/26 21:53:21;;;;;;;;;;;;;;;21.11;36.44;95757.78;10397076;28;1889;-43
2022/04/26 21:58:22;;;;;;;;;;;;;;;21.10;36.43;95755.44;10414664;28;1881;-43
2022/04/26 22:03:23;;;;;;;;;;;;;;;21.08;36.54;95761.75;10406708;28;1987;-43
2022/04/26 22:08:23;;;;;;;;;;;;;;;21.05;36.61;95764.94;10410826;28;1727;-47
2022/04/26 22:13:23;;;;;;;;;;;;;;;21.05;36.19;95767.56;10381118;28;1761;-46
2022/04/26 22:18:24;;;;;;;;;;;;;;;21.05;36.13;95766.78;10403591;28;1702;-44
2022/04/26 22:23:24;;;;;;;;;;;;;;;21.02;35.94;95768.13;10379304;28;1901;-44
2022/04/26 22:28:25;;;;;;;;;;;;;;;20.99;35.90;95768.66;10383366;28;1816;-46
2022/04/26 22:33:25;;;;;;;;;;;;;;;20.98;35.87;95772.34;10363284;28;140535;-45
2022/04/26 22:38:25;;;;;;;;;;;;;;;20.95;35.90;95772.09;10401085;28;1827;-43
2022/04/26 22:43:26;;;;;;;;;;;;;;;20.93;35.83;95771.59;10382580;28;1993;-44
2022/04/26 22:48:27;;;;;;;;;;;;;;;20.93;35.77;95775.03;10381248;28;1842;-44
2022/04/26 22:53:27;;;;;;;;;;;;;;;20.90;35.75;95783.47;10381403;28;1783;-47
2022/04/26 22:58:28;;;;;;;;;;;;;;;20.86;35.75;95785.06;10389966;28;2217;-45
2022/04/26 23:03:28;;;;;;;;;;;;;;;20.83;36.10;95785.63;10393728;28;1914;-45
2022/04/26 23:08:28;;;;;;;;;;;;;;;20.81;36.05;95789.59;10383413;28;1922;-42
2022/04/26 23:13:30;;;;;;;;;;;;;;;20.80;36.05;95786.19;10369583;28;1920;-44
2022/04/26 23:18:31;;;;;;;;;;;;;;;20.78;36.03;95782.22;10400851;28;1830;-42
2022/04/26 23:23:31;;;;;;;;;;;;;;;20.76;36.26;95793.06;10397187;28;1910;-42
2022/04/26 23:28:31;;;;;;;;;;;;;;;20.79;35.83;95791.72;10396905;28;1829;-42
2022/04/26 23:35:33;;;;;;;;;;;;;;;20.81;35.29;95795.63;10401925;28;1817;-44
2022/04/26 23:38:52;;;;;;;;;;;;;;;20.81;35.57;95797.50;10392277;28;1980;-43
2022/04/26 23:43:53;;;;;;;;;;;;;;;20.83;35.09;95801.44;10390760;28;1767;-41
2022/04/26 23:48:53;;;;;;;;;;;;;;;20.80;35.38;95799.34;10381432;28;2107;-42
2022/04/26 23:53:54;;;;;;;;;;;;;;;20.83;35.19;95798.03;10386470;28;1972;-43
2022/04/26 23:58:54;;;;;;;;;;;;;;;20.84;34.89;95804.84;10391437;28;1973;-45
